WMKJ/JHB METAR and TAF weather

Enter ICAO airport designator
Station Type Date Time Source
WMKJ METAR 2019/10/15 21:00 UTC NOAA

WMKJ 152100Z 00000KT 6000 FEW010 BKN280 25/24 Q1009


Station Type Date Time Source
WMKJ Decoded METAR 2019/10/15 21:00 UTC NOAA

Johore Bharu / Senai, Malaysia (WMKJ) 01-38N 103-40E 40M
Oct 15, 2019 - 05:00 PM EDT / 2019.10.15 2100 UTC
Wind: Calm:0
Visibility: 3 mile(s):0
Sky conditions: mostly cloudy
Temperature: 77 F (25 C)
Dew Point: 75 F (24 C)
Relative Humidity: 94%
Pressure (altimeter): 29.80 in. Hg (1009 hPa)
ob: WMKJ 152100Z 00000KT 6000 FEW010 BKN280 25/24 Q1009
cycle: 21

Station Type Date Time Source
WMKJ TAF 2019/10/15 18:09 UTC NOAA

TAF TAF WMKJ 151700Z 1518/1618 VRB01KT 9999 FEW017CB PROB30
TEMPO 1520/1600 3000 BR FEW008
BECMG 1601/1602 20005KT PROB30
TEMPO 1607/1611 13010KT 4000 TSRA FEW010 FEW016CB SCT018

Example: see airport list